Northdale, Florida
Current Conditions -  °F | °C
As of 11:53 PM on Saturday 20 Dec 2014 (Local Time) from KTPA Reporting Station
Broken Clouds Broken Clouds  
Wind Chill: 67°   Ceiling: 15000
Heat Index: 67°   Visibility: 10mi
Dew Point: 57°   Wind: 0mph
Humidity: 70%   Direction: NA
Pressure: 30.08"   Gusts: NA
Location:  28.0595°N, 82.6106°W
Report Text: KTPA 210453Z 00000KT 10SM SCT075 BKN150 19/14 A3008 RMK AO2 SLP186 T01940139 402440122
Loading
Personal Weather Stations






























Interactive Weather Map New forecast layout! Learn more

10-Day Weather Forecast

Advertisements
Track Severe Weather on mobile